createdAt,value
2023-02-02T00:01:02.308Z,7.19
2023-02-02T00:03:28.463Z,7.23
2023-02-02T00:05:54.610Z,7.20
2023-02-02T00:08:20.786Z,7.25
2023-02-02T00:10:47.009Z,7.15
2023-02-02T00:13:13.215Z,7.21
2023-02-02T00:15:39.409Z,7.18
2023-02-02T00:18:05.559Z,7.13
2023-02-02T00:20:31.733Z,7.14
2023-02-02T00:22:57.939Z,7.11
2023-02-02T00:25:24.312Z,7.10
2023-02-02T00:27:50.647Z,7.08
2023-02-02T00:30:16.825Z,7.09
2023-02-02T00:32:42.934Z,7.11
2023-02-02T00:35:09.052Z,6.99
2023-02-02T00:37:35.200Z,6.94
2023-02-02T00:40:01.373Z,6.93
2023-02-02T00:42:27.531Z,6.94
2023-02-02T00:44:53.735Z,6.94
2023-02-02T00:47:19.928Z,6.94
2023-02-02T00:49:46.131Z,6.96
2023-02-02T00:52:12.332Z,6.97
2023-02-02T00:54:38.523Z,7.02
2023-02-02T00:57:04.708Z,7.02
2023-02-02T00:59:30.863Z,7.00
2023-02-02T01:01:57.105Z,7.04
2023-02-02T01:04:25.653Z,7.08
2023-02-02T01:06:51.927Z,7.01
2023-02-02T01:09:18.380Z,7.02
2023-02-02T01:11:44.576Z,7.05
2023-02-02T01:14:10.754Z,7.05
2023-02-02T01:16:37.025Z,7.04
2023-02-02T01:19:03.181Z,7.07
2023-02-02T01:21:29.343Z,7.05
2023-02-02T01:23:55.555Z,7.06
2023-02-02T01:26:21.790Z,7.01
2023-02-02T01:28:48.025Z,7.05
2023-02-02T01:31:14.259Z,7.05
2023-02-02T01:33:40.550Z,7.08
2023-02-02T01:36:06.729Z,7.05
2023-02-02T01:38:32.927Z,7.07
2023-02-02T01:40:59.079Z,7.09
2023-02-02T01:43:25.222Z,7.17
2023-02-02T01:45:51.406Z,7.11
2023-02-02T01:48:17.599Z,7.14
2023-02-02T01:50:43.817Z,7.13
2023-02-02T01:53:09.979Z,7.13
2023-02-02T01:55:36.151Z,7.14
2023-02-02T01:58:02.267Z,7.15
2023-02-02T02:00:28.405Z,7.16
2023-02-02T02:02:54.529Z,7.16
2023-02-02T02:05:20.708Z,7.19
2023-02-02T02:07:46.907Z,7.21
2023-02-02T02:10:13.055Z,7.22
2023-02-02T02:12:39.202Z,7.19
2023-02-02T02:15:05.374Z,7.23
2023-02-02T02:17:31.554Z,7.22
2023-02-02T02:19:57.708Z,7.21
2023-02-02T02:22:23.821Z,7.30
2023-02-02T02:24:50.001Z,7.32
2023-02-02T02:27:16.169Z,7.35
2023-02-02T02:29:42.289Z,7.37
2023-02-02T02:32:08.513Z,7.40
2023-02-02T02:34:34.633Z,7.40
2023-02-02T02:37:00.846Z,7.45
2023-02-02T02:39:27.057Z,7.42
2023-02-02T02:41:53.171Z,7.48
2023-02-02T02:44:19.361Z,7.47
2023-02-02T02:46:45.524Z,7.47
2023-02-02T02:49:11.676Z,7.53
2023-02-02T02:51:37.855Z,7.56
2023-02-02T02:54:04.026Z,7.54
2023-02-02T02:56:30.149Z,7.50
2023-02-02T02:58:56.317Z,7.52
2023-02-02T03:01:22.545Z,7.50
2023-02-02T03:03:48.757Z,7.56
2023-02-02T03:06:14.932Z,7.55
2023-02-02T03:08:41.147Z,7.56
2023-02-02T03:11:07.372Z,7.57
2023-02-02T03:13:33.491Z,7.57
2023-02-02T03:15:59.692Z,7.57
2023-02-02T03:18:25.923Z,7.51
2023-02-02T03:20:52.096Z,7.53
2023-02-02T03:23:18.286Z,7.57
2023-02-02T03:25:44.508Z,7.56
2023-02-02T03:28:10.675Z,7.58
2023-02-02T03:30:36.844Z,7.60
2023-02-02T03:33:02.976Z,7.63
2023-02-02T03:35:29.111Z,7.63
2023-02-02T03:37:55.284Z,7.63
2023-02-02T03:40:21.474Z,7.63
2023-02-02T03:42:47.653Z,7.64
2023-02-02T03:45:13.831Z,7.69
2023-02-02T03:47:40.020Z,7.68
2023-02-02T03:50:06.200Z,7.67
2023-02-02T03:52:32.359Z,7.64
2023-02-02T03:54:58.486Z,7.63
2023-02-02T03:57:24.636Z,7.63
2023-02-02T03:59:50.815Z,7.62
2023-02-02T04:02:17.064Z,7.65
2023-02-02T04:04:43.264Z,7.70
2023-02-02T04:07:09.465Z,7.68
2023-02-02T04:09:35.641Z,7.76
2023-02-02T04:12:01.809Z,7.72
2023-02-02T04:14:27.950Z,7.69
2023-02-02T04:16:54.112Z,7.74
2023-02-02T04:19:20.323Z,7.74
2023-02-02T04:21:46.529Z,7.67
2023-02-02T04:24:12.660Z,7.66
2023-02-02T04:26:38.868Z,7.64
2023-02-02T04:29:05.115Z,7.57
2023-02-02T04:31:31.341Z,7.56
2023-02-02T04:33:57.552Z,7.56
2023-02-02T04:36:23.722Z,7.54
2023-02-02T04:38:49.839Z,7.57
2023-02-02T04:41:15.999Z,7.59
2023-02-02T04:43:42.166Z,7.62
2023-02-02T04:46:08.362Z,7.62
2023-02-02T04:48:34.555Z,7.69
2023-02-02T04:51:00.782Z,7.63
2023-02-02T04:53:27.050Z,7.67
2023-02-02T04:55:53.295Z,7.67
2023-02-02T04:58:19.540Z,7.74
2023-02-02T05:00:45.781Z,7.67
2023-02-02T05:03:11.979Z,7.74
2023-02-02T05:05:38.172Z,7.75
2023-02-02T05:08:04.334Z,7.78
2023-02-02T05:10:30.579Z,7.77
2023-02-02T05:12:56.710Z,7.78
2023-02-02T05:15:23.255Z,7.77
2023-02-02T05:17:49.584Z,7.73
2023-02-02T05:20:15.826Z,7.74
2023-02-02T05:22:41.968Z,7.71
2023-02-02T05:25:08.150Z,7.69
2023-02-02T05:27:34.319Z,7.71
2023-02-02T05:30:00.450Z,7.64
2023-02-02T05:32:26.627Z,7.69
2023-02-02T05:34:52.805Z,7.63
2023-02-02T05:37:18.954Z,7.57
2023-02-02T05:39:45.120Z,7.53
2023-02-02T05:42:11.240Z,7.51
2023-02-02T05:44:37.423Z,7.50
2023-02-02T05:47:03.610Z,7.54
2023-02-02T05:49:29.831Z,7.57
2023-02-02T05:51:55.969Z,7.59
2023-02-02T05:54:22.095Z,7.61
2023-02-02T05:56:48.322Z,7.59
2023-02-02T05:59:14.452Z,7.64
2023-02-02T06:01:40.658Z,7.66
2023-02-02T06:04:06.864Z,7.66
2023-02-02T06:06:33.092Z,7.69
2023-02-02T06:09:02.736Z,7.75
2023-02-02T06:11:29.016Z,7.73
2023-02-02T06:13:55.234Z,7.73
2023-02-02T06:16:21.375Z,7.72
2023-02-02T06:18:47.489Z,7.76
2023-02-02T06:21:13.684Z,7.76
2023-02-02T06:23:39.862Z,7.69
2023-02-02T06:26:06.028Z,7.70
2023-02-02T06:28:32.373Z,7.75
2023-02-02T06:30:58.572Z,7.75
2023-02-02T06:33:24.797Z,7.75
2023-02-02T06:35:50.994Z,7.70
2023-02-02T06:38:17.160Z,7.73
2023-02-02T06:40:43.356Z,7.76
2023-02-02T06:43:12.442Z,7.79
2023-02-02T06:45:38.601Z,7.79
2023-02-02T06:48:04.778Z,7.72
2023-02-02T06:50:31.107Z,7.77
2023-02-02T06:52:57.278Z,7.77
2023-02-02T06:55:23.776Z,7.81
2023-02-02T06:57:50.057Z,7.81
2023-02-02T07:00:16.185Z,7.78
2023-02-02T07:02:42.382Z,7.79
2023-02-02T07:05:08.656Z,7.76
2023-02-02T07:07:34.834Z,7.75
2023-02-02T07:10:01.041Z,7.74
2023-02-02T07:12:27.202Z,7.79
2023-02-02T07:14:53.382Z,7.78
2023-02-02T07:17:19.567Z,7.82
2023-02-02T07:19:45.776Z,7.82
2023-02-02T07:22:11.974Z,7.83
2023-02-02T07:24:38.091Z,7.78
2023-02-02T07:27:04.263Z,7.77
2023-02-02T07:29:30.447Z,7.74
2023-02-02T07:31:56.597Z,7.76
2023-02-02T07:34:22.791Z,7.80
2023-02-02T07:36:48.902Z,7.82
2023-02-02T07:39:15.057Z,7.78
2023-02-02T07:41:41.203Z,7.76
2023-02-02T07:44:07.394Z,7.74
2023-02-02T07:46:33.593Z,7.75
2023-02-02T07:48:59.826Z,7.75
2023-02-02T07:51:25.967Z,7.73
2023-02-02T07:53:52.214Z,7.75
2023-02-02T07:56:18.399Z,7.82
2023-02-02T07:58:44.571Z,7.86
2023-02-02T08:01:10.789Z,7.88
2023-02-02T08:03:37.031Z,7.93
2023-02-02T08:06:03.269Z,7.98
2023-02-02T08:08:29.386Z,8.03
2023-02-02T08:10:55.573Z,8.05
2023-02-02T08:13:21.709Z,8.19
2023-02-02T08:15:48.155Z,8.18
2023-02-02T08:18:14.440Z,8.15
2023-02-02T08:20:40.613Z,8.19
2023-02-02T08:23:06.770Z,8.14
2023-02-02T08:25:32.956Z,8.22
2023-02-02T08:27:59.098Z,8.17
2023-02-02T08:30:25.357Z,8.10
2023-02-02T08:32:51.667Z,8.15
2023-02-02T08:35:17.861Z,8.21
2023-02-02T08:37:44.132Z,8.30
2023-02-02T08:40:10.377Z,8.46
2023-02-02T08:42:36.658Z,8.43
2023-02-02T08:46:01.207Z,8.47
2023-02-02T08:47:53.823Z,8.49
2023-02-02T08:50:25.114Z,8.52
2023-02-02T08:52:51.288Z,8.59
2023-02-02T08:55:17.540Z,8.63
2023-02-02T08:57:43.716Z,8.70
2023-02-02T09:00:09.839Z,8.82
2023-02-02T09:02:36.076Z,8.79
2023-02-02T09:05:02.330Z,8.82
2023-02-02T09:07:28.532Z,8.88
2023-02-02T09:09:54.714Z,9.05
2023-02-02T09:12:20.969Z,9.10
2023-02-02T09:14:47.148Z,9.11
2023-02-02T09:17:13.289Z,9.21
2023-02-02T09:19:39.491Z,9.20
2023-02-02T09:22:05.674Z,9.16
2023-02-02T09:24:31.882Z,9.18
2023-02-02T09:26:58.219Z,9.26
2023-02-02T09:29:24.457Z,9.30
2023-02-02T09:31:50.711Z,9.37
2023-02-02T09:34:16.938Z,9.34
2023-02-02T09:36:43.127Z,9.30
2023-02-02T09:39:09.352Z,9.25
2023-02-02T09:41:35.548Z,9.19
2023-02-02T09:44:01.691Z,9.16
2023-02-02T09:46:27.963Z,9.13
2023-02-02T09:48:54.132Z,9.11
2023-02-02T09:51:20.316Z,9.10
2023-02-02T09:53:55.169Z,9.12
2023-02-02T09:56:22.036Z,9.16
2023-02-02T09:58:48.215Z,9.02
2023-02-02T10:01:14.420Z,9.28
2023-02-02T10:03:40.692Z,9.20
2023-02-02T10:06:06.922Z,9.22
2023-02-02T10:08:35.033Z,9.16
2023-02-02T10:11:01.841Z,9.21
2023-02-02T10:13:28.034Z,9.23
2023-02-02T10:15:54.301Z,9.21
2023-02-02T10:18:20.489Z,9.12
2023-02-02T10:20:46.628Z,9.07
2023-02-02T10:23:12.817Z,9.02
2023-02-02T10:25:38.983Z,8.96
2023-02-02T10:28:05.157Z,8.96
2023-02-02T10:30:31.280Z,8.97
2023-02-02T10:32:59.071Z,9.03
2023-02-02T10:35:27.135Z,8.95
2023-02-02T10:37:53.327Z,8.95
2023-02-02T10:40:19.533Z,8.93
2023-02-02T10:42:45.773Z,8.90
2023-02-02T10:45:11.976Z,8.94
2023-02-02T10:47:38.197Z,8.91
2023-02-02T10:50:04.385Z,8.93
2023-02-02T10:52:30.619Z,8.90
2023-02-02T10:54:58.728Z,8.94
2023-02-02T10:57:25.682Z,8.92
2023-02-02T10:59:51.951Z,8.91
2023-02-02T11:02:21.133Z,9.01
2023-02-02T11:04:47.608Z,9.01
2023-02-02T11:07:13.810Z,9.02
2023-02-02T11:09:40.037Z,9.06
2023-02-02T11:12:06.275Z,9.07
2023-02-02T11:14:35.157Z,9.09
2023-02-02T11:17:05.399Z,9.12
2023-02-02T11:19:31.584Z,9.17
2023-02-02T11:21:57.753Z,9.20
2023-02-02T11:24:23.992Z,9.14
2023-02-02T11:26:50.217Z,9.18
2023-02-02T11:29:16.459Z,9.22
2023-02-02T11:31:42.675Z,9.22
2023-02-02T11:34:08.871Z,9.27
2023-02-02T11:36:35.010Z,9.32
2023-02-02T11:39:01.170Z,9.41
2023-02-02T11:41:27.324Z,9.37
2023-02-02T11:43:53.505Z,9.39
2023-02-02T11:46:19.824Z,9.45
2023-02-02T11:48:46.098Z,9.36
2023-02-02T11:51:12.275Z,9.43
2023-02-02T11:53:38.475Z,9.44
2023-02-02T11:56:05.187Z,9.40
2023-02-02T11:58:31.377Z,9.38
2023-02-02T12:00:57.579Z,9.37
2023-02-02T12:03:23.800Z,9.36
2023-02-02T12:05:49.978Z,9.34
2023-02-02T12:08:17.295Z,9.30
2023-02-02T12:10:43.555Z,9.26
2023-02-02T12:13:09.731Z,9.30
2023-02-02T12:15:35.951Z,9.34
2023-02-02T12:18:02.143Z,9.41
2023-02-02T12:20:28.564Z,9.42
2023-02-02T12:22:54.945Z,9.42
2023-02-02T12:25:21.257Z,9.46
2023-02-02T12:27:47.441Z,9.58
2023-02-02T12:30:13.690Z,9.68
2023-02-02T12:32:39.859Z,9.71
2023-02-02T12:35:06.046Z,9.70
2023-02-02T12:37:32.276Z,9.73
2023-02-02T12:39:58.433Z,9.74
2023-02-02T12:42:24.638Z,9.79
2023-02-02T12:44:51.231Z,9.90
2023-02-02T12:47:17.424Z,9.94
2023-02-02T12:49:43.646Z,10.06
2023-02-02T12:52:11.353Z,10.07
2023-02-02T12:54:44.860Z,10.14
2023-02-02T12:57:17.512Z,10.16
2023-02-02T12:59:43.700Z,10.39
2023-02-02T13:02:09.884Z,10.48
2023-02-02T13:04:42.345Z,10.65
2023-02-02T13:07:08.528Z,10.60
2023-02-02T13:09:34.683Z,10.75
2023-02-02T13:12:00.812Z,10.84
2023-02-02T13:14:27.021Z,10.75
2023-02-02T13:16:53.259Z,10.63
2023-02-02T13:19:19.513Z,10.68
2023-02-02T13:21:45.740Z,10.78
2023-02-02T13:24:11.875Z,10.67
2023-02-02T13:26:38.181Z,10.64
2023-02-02T13:29:04.493Z,10.45
2023-02-02T13:31:30.758Z,10.51
2023-02-02T13:33:56.997Z,10.60
2023-02-02T13:36:25.181Z,10.76
2023-02-02T13:38:51.375Z,10.70
2023-02-02T13:41:17.543Z,10.72
2023-02-02T13:43:44.072Z,10.51
2023-02-02T13:46:10.341Z,10.37
2023-02-02T13:48:36.570Z,10.43
2023-02-02T13:51:02.927Z,10.45
2023-02-02T13:53:29.087Z,10.43
2023-02-02T13:55:55.287Z,10.30
2023-02-02T13:58:21.655Z,10.29
2023-02-02T14:00:47.886Z,10.38
2023-02-02T14:03:14.095Z,10.40
2023-02-02T14:05:40.272Z,10.35
2023-02-02T14:08:06.442Z,10.45
2023-02-02T14:10:32.620Z,10.44
2023-02-02T14:13:00.948Z,10.44
2023-02-02T14:15:31.502Z,10.28
2023-02-02T14:17:57.731Z,10.25
2023-02-02T14:20:24.312Z,10.13
2023-02-02T14:22:50.468Z,9.97
2023-02-02T14:25:16.671Z,10.03
2023-02-02T14:27:42.945Z,9.97
2023-02-02T14:30:09.066Z,9.99
2023-02-02T14:32:35.253Z,10.03
2023-02-02T14:35:01.471Z,10.01
2023-02-02T14:37:27.701Z,10.04
2023-02-02T14:39:53.896Z,9.98
2023-02-02T14:42:20.038Z,9.96
2023-02-02T14:44:46.166Z,9.85
2023-02-02T14:47:12.413Z,9.85
2023-02-02T14:49:38.601Z,9.90
2023-02-02T14:52:04.822Z,9.81
2023-02-02T14:54:31.025Z,9.79
2023-02-02T14:56:57.231Z,9.76
2023-02-02T14:59:23.434Z,9.71
2023-02-02T15:01:49.681Z,9.67
2023-02-02T15:04:15.864Z,9.65
2023-02-02T15:06:42.060Z,9.72
2023-02-02T15:09:08.253Z,9.64
2023-02-02T15:11:34.490Z,9.64
2023-02-02T15:14:00.658Z,9.60
2023-02-02T15:16:26.803Z,9.57
2023-02-02T15:18:52.950Z,9.57
2023-02-02T15:21:19.159Z,9.57
2023-02-02T15:23:45.311Z,9.56
2023-02-02T15:26:11.462Z,9.53
2023-02-02T15:28:37.681Z,9.48
2023-02-02T15:31:03.882Z,9.49
2023-02-02T15:33:30.090Z,9.50
2023-02-02T15:35:56.318Z,9.48
2023-02-02T15:38:22.496Z,9.52
2023-02-02T15:40:48.719Z,9.58
2023-02-02T15:43:14.856Z,9.54
2023-02-02T15:45:41.082Z,9.52
2023-02-02T15:48:07.261Z,9.47
2023-02-02T15:50:33.614Z,9.50
2023-02-02T15:52:59.766Z,9.49
2023-02-02T15:55:26.273Z,9.47
2023-02-02T15:57:54.171Z,9.44
2023-02-02T16:00:20.661Z,9.42
2023-02-02T16:02:48.997Z,9.43
2023-02-02T16:05:15.189Z,9.37
2023-02-02T16:07:41.428Z,9.35
2023-02-02T16:10:07.675Z,9.32
2023-02-02T16:12:33.810Z,9.38
2023-02-02T16:14:59.969Z,9.39
2023-02-02T16:17:26.134Z,9.30
2023-02-02T16:19:52.316Z,9.26
2023-02-02T16:22:18.480Z,9.21
2023-02-02T16:24:44.664Z,9.17
2023-02-02T16:27:10.839Z,9.14
2023-02-02T16:29:37.092Z,9.18
2023-02-02T16:32:03.282Z,9.22
2023-02-02T16:34:29.449Z,9.23
2023-02-02T16:36:55.613Z,9.23
2023-02-02T16:39:21.811Z,9.29
2023-02-02T16:41:48.061Z,9.25
2023-02-02T16:44:14.423Z,9.28
2023-02-02T16:46:40.629Z,9.32
2023-02-02T16:49:06.838Z,9.36
2023-02-02T16:51:34.145Z,9.32
2023-02-02T16:54:00.576Z,9.30
2023-02-02T16:56:26.787Z,9.32
2023-02-02T16:58:53.016Z,9.32
2023-02-02T17:01:19.277Z,9.32
2023-02-02T17:03:45.445Z,9.29
2023-02-02T17:06:11.676Z,9.23
2023-02-02T17:08:37.912Z,9.23
2023-02-02T17:11:04.086Z,9.23
2023-02-02T17:13:30.244Z,9.25
2023-02-02T17:15:56.718Z,9.19
2023-02-02T17:18:22.873Z,9.15
2023-02-02T17:20:49.009Z,9.16
2023-02-02T17:23:15.200Z,9.14
2023-02-02T17:25:41.376Z,9.14
2023-02-02T17:28:09.843Z,9.16
2023-02-02T17:30:36.162Z,9.14
2023-02-02T17:33:02.470Z,9.10
2023-02-02T17:35:40.029Z,9.04
2023-02-02T17:38:17.076Z,9.03
2023-02-02T17:40:43.946Z,9.03
2023-02-02T17:43:10.292Z,8.96
2023-02-02T17:45:36.611Z,8.98
2023-02-02T17:48:02.827Z,8.96
2023-02-02T17:50:29.109Z,8.93
2023-02-02T17:52:55.271Z,8.88
2023-02-02T17:55:21.434Z,8.87
2023-02-02T17:57:47.818Z,8.79
2023-02-02T18:00:14.025Z,8.73
2023-02-02T18:02:40.185Z,8.82
2023-02-02T18:05:06.741Z,8.70
2023-02-02T18:07:32.907Z,8.62
2023-02-02T18:09:59.044Z,8.50
2023-02-02T18:12:25.243Z,8.39
2023-02-02T18:14:51.494Z,8.30
2023-02-02T18:17:17.630Z,8.21
2023-02-02T18:19:43.779Z,8.17
2023-02-02T18:22:09.961Z,8.10
2023-02-02T18:24:36.970Z,8.08
2023-02-02T18:27:03.147Z,8.06
2023-02-02T18:29:29.303Z,8.05
2023-02-02T18:31:56.104Z,7.95
2023-02-02T18:34:22.378Z,7.98
2023-02-02T18:36:48.551Z,7.95
2023-02-02T18:39:17.035Z,7.95
2023-02-02T18:41:43.210Z,7.95
2023-02-02T18:44:09.433Z,7.96
2023-02-02T18:46:38.615Z,7.95
2023-02-02T18:49:04.769Z,7.93
2023-02-02T18:51:31.378Z,7.94
2023-02-02T18:53:57.539Z,7.99
2023-02-02T18:56:23.705Z,7.90
2023-02-02T18:58:49.865Z,7.89
2023-02-02T19:01:16.065Z,7.90
2023-02-02T19:03:42.331Z,7.82
2023-02-02T19:06:08.487Z,7.82
2023-02-02T19:08:34.701Z,7.78
2023-02-02T19:11:00.900Z,7.77
2023-02-02T19:13:27.064Z,7.77
2023-02-02T19:15:53.394Z,7.73
2023-02-02T19:18:19.603Z,7.70
2023-02-02T19:20:45.783Z,7.71
2023-02-02T19:23:12.305Z,7.67
2023-02-02T19:25:38.502Z,7.66
2023-02-02T19:28:04.746Z,7.59
2023-02-02T19:30:31.097Z,7.60
2023-02-02T19:32:57.276Z,7.57
2023-02-02T19:35:23.778Z,7.59
2023-02-02T19:37:50.095Z,7.60
2023-02-02T19:40:16.442Z,7.66
2023-02-02T19:42:42.622Z,7.66
2023-02-02T19:45:08.819Z,7.60
2023-02-02T19:47:36.803Z,7.54
2023-02-02T19:50:02.989Z,7.60
2023-02-02T19:52:29.235Z,7.63
2023-02-02T19:54:55.559Z,7.66
2023-02-02T19:57:21.851Z,7.65
2023-02-02T19:59:48.012Z,7.66
2023-02-02T20:02:14.223Z,7.63
2023-02-02T20:04:40.451Z,7.67
2023-02-02T20:07:06.672Z,7.69
2023-02-02T20:09:32.821Z,7.68
2023-02-02T20:11:59.042Z,7.73
2023-02-02T20:14:25.240Z,7.73
2023-02-02T20:16:51.529Z,7.74
2023-02-02T20:19:17.876Z,7.72
2023-02-02T20:21:46.254Z,7.71
2023-02-02T20:24:12.502Z,7.73
2023-02-02T20:26:38.941Z,7.70
2023-02-02T20:29:05.203Z,7.71
2023-02-02T20:31:31.403Z,7.69
2023-02-02T20:33:57.593Z,7.76
2023-02-02T20:36:23.899Z,7.79
2023-02-02T20:38:50.090Z,7.73
2023-02-02T20:41:19.265Z,7.72
2023-02-02T20:43:45.505Z,7.75
2023-02-02T20:46:11.738Z,7.73
2023-02-02T20:48:37.944Z,7.78
2023-02-02T20:51:04.097Z,7.80
2023-02-02T20:53:30.263Z,7.81
2023-02-02T20:55:56.442Z,7.77
2023-02-02T20:58:22.628Z,7.75
2023-02-02T21:00:48.832Z,7.73
2023-02-02T21:03:15.050Z,7.74
2023-02-02T21:05:41.243Z,7.81
2023-02-02T21:08:07.374Z,7.78
2023-02-02T21:10:33.520Z,7.81
2023-02-02T21:12:59.707Z,7.76
2023-02-02T21:15:25.877Z,7.74
2023-02-02T21:17:52.089Z,7.75
2023-02-02T21:20:18.321Z,7.74
2023-02-02T21:22:44.483Z,7.74
2023-02-02T21:25:10.615Z,7.74
2023-02-02T21:27:36.773Z,7.74
2023-02-02T21:30:03.003Z,7.74
2023-02-02T21:32:29.165Z,7.70
2023-02-02T21:34:55.331Z,7.71
2023-02-02T21:37:21.550Z,7.70
2023-02-02T21:39:47.721Z,7.70
2023-02-02T21:42:13.900Z,7.74
2023-02-02T21:44:40.077Z,7.73
2023-02-02T21:47:06.256Z,7.70
2023-02-02T21:49:32.420Z,7.70
2023-02-02T21:51:58.612Z,7.74
2023-02-02T21:54:26.711Z,7.72
2023-02-02T21:56:52.954Z,7.74
2023-02-02T21:59:19.098Z,7.79
2023-02-02T22:01:45.385Z,7.78
2023-02-02T22:04:11.645Z,7.78
2023-02-02T22:06:37.802Z,7.83
2023-02-02T22:09:03.971Z,7.78
2023-02-02T22:11:30.086Z,7.76
2023-02-02T22:13:56.223Z,7.75
2023-02-02T22:16:22.431Z,7.79
2023-02-02T22:18:48.601Z,7.77
2023-02-02T22:21:14.729Z,7.81
2023-02-02T22:23:40.908Z,7.82
2023-02-02T22:26:07.060Z,7.77
2023-02-02T22:28:33.213Z,7.80
2023-02-02T22:30:59.466Z,7.78
2023-02-02T22:33:25.705Z,7.79
2023-02-02T22:35:51.844Z,7.80
2023-02-02T22:38:18.045Z,7.78
2023-02-02T22:40:44.279Z,7.79
2023-02-02T22:43:10.468Z,7.75
2023-02-02T22:45:36.663Z,7.77
2023-02-02T22:48:02.856Z,7.74
2023-02-02T22:50:29.265Z,7.80
2023-02-02T22:52:55.501Z,7.79
2023-02-02T22:55:21.668Z,7.88
2023-02-02T22:57:47.897Z,7.76
2023-02-02T23:00:14.027Z,7.77
2023-02-02T23:02:40.258Z,7.77
2023-02-02T23:05:06.454Z,7.77
2023-02-02T23:07:32.617Z,7.76
2023-02-02T23:09:58.812Z,7.71
2023-02-02T23:12:25.016Z,7.74
2023-02-02T23:14:51.203Z,7.75
2023-02-02T23:17:17.341Z,7.78
2023-02-02T23:19:43.513Z,7.79
2023-02-02T23:22:09.701Z,7.77
2023-02-02T23:24:35.835Z,7.77
2023-02-02T23:27:02.034Z,7.78
2023-02-02T23:29:28.212Z,7.77
2023-02-02T23:31:54.405Z,7.79
2023-02-02T23:34:20.606Z,7.77
2023-02-02T23:36:46.756Z,7.78
2023-02-02T23:39:12.914Z,7.74
2023-02-02T23:41:39.087Z,7.72
2023-02-02T23:44:05.231Z,7.72
2023-02-02T23:46:31.424Z,7.70
2023-02-02T23:48:57.652Z,7.69
2023-02-02T23:51:23.803Z,7.70
2023-02-02T23:53:49.992Z,7.73
2023-02-02T23:56:16.108Z,7.70
2023-02-02T23:58:42.284Z,7.71
